createdAt,value
2017-05-23T00:00:00.273Z,10.78
2017-05-23T00:02:28.598Z,9.90
2017-05-23T00:04:56.913Z,9.97
2017-05-23T00:07:25.378Z,10.37
2017-05-23T00:09:54.122Z,10.15
2017-05-23T00:12:22.486Z,10.82
2017-05-23T00:14:50.854Z,10.57
2017-05-23T00:17:19.347Z,9.92
2017-05-23T00:19:47.682Z,10.22
2017-05-23T00:22:16.080Z,9.97
2017-05-23T00:24:44.445Z,9.90
2017-05-23T00:27:12.809Z,9.42
2017-05-23T00:29:45.448Z,9.93
2017-05-23T00:32:13.816Z,10.63
2017-05-23T00:34:42.478Z,9.60
2017-05-23T00:37:11.308Z,10.75
2017-05-23T00:39:39.682Z,10.58
2017-05-23T00:42:08.010Z,9.90
2017-05-23T00:44:36.081Z,9.75
2017-05-23T00:47:04.441Z,10.22
2017-05-23T00:49:32.815Z,9.50
2017-05-23T00:52:01.258Z,9.87
2017-05-23T00:54:29.614Z,10.45
2017-05-23T00:56:57.935Z,10.12
2017-05-23T00:59:26.302Z,9.90
2017-05-23T01:01:54.885Z,10.40
2017-05-23T01:04:23.209Z,10.90
2017-05-23T01:06:51.527Z,10.82
2017-05-23T01:09:20.438Z,9.78
2017-05-23T01:11:48.759Z,10.02
2017-05-23T01:14:17.163Z,10.07
2017-05-23T01:16:45.538Z,10.68
2017-05-23T01:19:14.253Z,9.85
2017-05-23T01:21:42.627Z,10.12
2017-05-23T01:24:10.950Z,10.43
2017-05-23T01:26:39.637Z,10.78
2017-05-23T01:29:08.010Z,11.08
2017-05-23T01:31:36.334Z,9.93
2017-05-23T01:34:06.230Z,9.82
2017-05-23T01:36:35.153Z,10.75
2017-05-23T01:39:03.531Z,10.60
2017-05-23T01:41:31.857Z,10.77
2017-05-23T01:44:00.401Z,11.30
2017-05-23T01:46:28.760Z,11.30
2017-05-23T01:48:57.177Z,10.98
2017-05-23T01:51:25.553Z,11.22
2017-05-23T01:53:54.030Z,10.97
2017-05-23T01:56:22.394Z,11.28
2017-05-23T01:58:50.723Z,10.62
2017-05-23T02:01:19.258Z,10.68
2017-05-23T02:03:47.590Z,10.43
2017-05-23T02:06:15.955Z,11.08
2017-05-23T02:08:44.317Z,10.88
2017-05-23T02:11:13.401Z,11.28
2017-05-23T02:13:41.730Z,10.47
2017-05-23T02:16:10.054Z,11.02
2017-05-23T02:18:38.485Z,11.00
2017-05-23T02:21:06.806Z,10.63
2017-05-23T02:23:35.311Z,10.82
2017-05-23T02:26:03.625Z,11.27
2017-05-23T02:28:31.946Z,10.90
2017-05-23T02:31:00.319Z,11.87
2017-05-23T02:33:28.644Z,11.97
2017-05-23T02:35:58.418Z,12.47
2017-05-23T02:38:26.796Z,12.20
2017-05-23T02:40:55.099Z,12.72
2017-05-23T02:43:23.474Z,12.35
2017-05-23T02:45:51.798Z,12.20
2017-05-23T02:48:20.162Z,12.43
2017-05-23T02:50:48.485Z,12.08
2017-05-23T02:53:17.351Z,11.45
2017-05-23T02:55:45.674Z,11.80
2017-05-23T02:58:14.406Z,13.33
2017-05-23T03:00:42.726Z,14.40
2017-05-23T03:03:11.051Z,13.83
2017-05-23T03:05:39.798Z,12.95
2017-05-23T03:08:08.118Z,12.35
2017-05-23T03:10:36.433Z,12.88
2017-05-23T03:13:05.518Z,12.63
2017-05-23T03:15:33.838Z,12.73
2017-05-23T03:18:02.174Z,11.40
2017-05-23T03:20:29.770Z,11.83
2017-05-23T03:22:58.516Z,12.40
2017-05-23T03:25:26.842Z,12.93
2017-05-23T03:27:55.158Z,12.13
2017-05-23T03:30:24.066Z,12.20
2017-05-23T03:32:52.393Z,12.85
2017-05-23T03:35:20.706Z,11.73
2017-05-23T03:37:49.299Z,13.03
2017-05-23T03:40:17.979Z,12.48
2017-05-23T03:42:46.306Z,13.35
2017-05-23T03:45:14.641Z,12.52
2017-05-23T03:47:43.102Z,13.05
2017-05-23T03:50:11.431Z,13.13
2017-05-23T03:52:39.954Z,13.25
2017-05-23T03:55:08.292Z,15.78
2017-05-23T03:57:36.677Z,16.17
2017-05-23T04:00:04.994Z,14.73
2017-05-23T04:02:33.316Z,13.43
2017-05-23T04:05:02.030Z,14.05
2017-05-23T04:07:30.370Z,13.83
2017-05-23T04:09:58.695Z,14.68
2017-05-23T04:12:27.334Z,13.45
2017-05-23T04:14:55.658Z,13.55
2017-05-23T04:17:23.974Z,14.15
2017-05-23T04:19:52.556Z,14.00
2017-05-23T04:22:20.434Z,13.82
2017-05-23T04:24:48.766Z,13.62
2017-05-23T04:27:17.122Z,13.30
2017-05-23T04:29:45.442Z,13.35
2017-05-23T04:32:14.073Z,13.48
2017-05-23T04:34:42.805Z,12.67
2017-05-23T04:37:11.129Z,13.32
2017-05-23T04:39:39.606Z,13.62
2017-05-23T04:42:07.925Z,13.32
2017-05-23T04:44:36.283Z,13.30
2017-05-23T04:47:04.618Z,13.37
2017-05-23T04:49:32.986Z,14.02
2017-05-23T04:52:01.305Z,13.38
2017-05-23T04:54:29.858Z,13.83
2017-05-23T04:56:58.182Z,14.13
2017-05-23T04:59:26.518Z,13.25
2017-05-23T05:01:58.518Z,13.17
2017-05-23T05:04:27.237Z,12.75
2017-05-23T05:06:55.557Z,12.08
2017-05-23T05:09:23.874Z,12.50
2017-05-23T05:11:52.298Z,12.87
2017-05-23T05:14:20.613Z,13.18
2017-05-23T05:16:48.974Z,13.23
2017-05-23T05:19:17.682Z,13.02
2017-05-23T05:21:46.002Z,11.98
2017-05-23T05:24:14.323Z,11.97
2017-05-23T05:26:43.062Z,12.55
2017-05-23T05:29:11.550Z,12.02
2017-05-23T05:31:39.897Z,13.13
2017-05-23T05:34:08.228Z,13.07
2017-05-23T05:36:37.328Z,11.90
2017-05-23T05:39:05.666Z,13.60
2017-05-23T05:41:33.989Z,12.27
2017-05-23T05:44:02.420Z,12.78
2017-05-23T05:46:30.736Z,11.78
2017-05-23T05:48:59.122Z,11.80
2017-05-23T05:51:28.718Z,11.02
2017-05-23T05:53:57.270Z,10.95
2017-05-23T05:56:25.590Z,12.05
2017-05-23T05:58:53.925Z,11.55
2017-05-23T06:01:22.445Z,12.32
2017-05-23T06:03:50.761Z,11.88
2017-05-23T06:06:19.093Z,12.48
2017-05-23T06:08:47.485Z,12.12
2017-05-23T06:11:15.812Z,11.18
2017-05-23T06:13:51.401Z,11.92
2017-05-23T06:16:19.722Z,11.30
2017-05-23T06:18:48.042Z,11.98
2017-05-23T06:21:16.487Z,11.85
2017-05-23T06:23:44.830Z,12.52
2017-05-23T06:26:13.153Z,11.50
2017-05-23T06:28:42.226Z,10.97
2017-05-23T06:31:10.555Z,11.70
2017-05-23T06:33:39.155Z,11.38
2017-05-23T06:36:07.477Z,10.95
2017-05-23T06:38:35.803Z,11.12
2017-05-23T06:41:04.534Z,11.15
2017-05-23T06:43:32.874Z,10.92
2017-05-23T06:46:01.202Z,10.90
2017-05-23T06:48:29.889Z,10.62
2017-05-23T06:50:58.653Z,11.43
2017-05-23T06:53:27.022Z,11.87
2017-05-23T06:55:55.345Z,11.00
2017-05-23T06:58:24.039Z,12.08
2017-05-23T07:00:52.364Z,10.52
2017-05-23T07:03:20.687Z,10.13
2017-05-23T07:05:49.441Z,10.30
2017-05-23T07:08:17.765Z,10.68
2017-05-23T07:10:46.119Z,9.65
2017-05-23T07:13:14.480Z,9.98
2017-05-23T07:15:42.839Z,9.77
2017-05-23T07:18:11.394Z,9.82
2017-05-23T07:20:39.722Z,10.12
2017-05-23T07:23:08.050Z,10.65
2017-05-23T07:25:36.490Z,9.70
2017-05-23T07:28:04.811Z,9.05
2017-05-23T07:30:38.464Z,8.33
2017-05-23T07:33:06.786Z,8.80
2017-05-23T07:35:35.096Z,8.58
2017-05-23T07:38:03.462Z,9.13
2017-05-23T07:40:31.786Z,9.10
2017-05-23T07:43:00.469Z,9.32
2017-05-23T07:45:28.795Z,8.53
2017-05-23T07:47:57.229Z,8.23
2017-05-23T07:50:25.562Z,8.40
2017-05-23T07:52:54.682Z,8.10
2017-05-23T07:55:23.010Z,9.33
2017-05-23T07:57:51.325Z,7.80
2017-05-23T08:00:19.883Z,7.65
2017-05-23T08:02:48.202Z,7.22
2017-05-23T08:05:16.910Z,7.88
2017-05-23T08:07:44.494Z,7.03
2017-05-23T08:10:12.819Z,6.68
2017-05-23T08:12:41.199Z,8.70
2017-05-23T08:15:09.943Z,7.48
2017-05-23T08:17:38.269Z,8.47
2017-05-23T08:20:06.591Z,7.83
2017-05-23T08:22:34.949Z,7.67
2017-05-23T08:25:03.270Z,7.50
2017-05-23T08:27:31.641Z,6.77
2017-05-23T08:29:59.974Z,8.12
2017-05-23T08:32:28.870Z,7.18
2017-05-23T08:34:57.638Z,7.12
2017-05-23T08:37:25.973Z,6.06
2017-05-23T08:39:54.331Z,6.30
2017-05-23T08:42:22.651Z,7.32
2017-05-23T08:44:51.050Z,9.36
2017-05-23T08:47:19.370Z,7.62
2017-05-23T08:49:47.723Z,7.78
2017-05-23T08:52:16.407Z,8.70
2017-05-23T08:54:44.726Z,7.76
2017-05-23T08:57:13.046Z,6.62
2017-05-23T08:59:41.766Z,7.74
2017-05-23T09:02:10.116Z,7.56
2017-05-23T09:04:38.446Z,8.20
2017-05-23T09:07:07.172Z,7.34
2017-05-23T09:09:35.488Z,6.62
2017-05-23T09:12:03.826Z,7.00
2017-05-23T09:14:32.454Z,6.36
2017-05-23T09:17:00.779Z,6.10
2017-05-23T09:19:29.090Z,5.66
2017-05-23T09:21:57.815Z,5.82
2017-05-23T09:24:26.145Z,7.44
2017-05-23T09:27:00.383Z,6.66
2017-05-23T09:29:28.725Z,5.60
2017-05-23T09:31:57.128Z,6.74
2017-05-23T09:34:25.441Z,4.76
2017-05-23T09:36:57.839Z,4.02
2017-05-23T09:39:26.200Z,3.88
2017-05-23T09:41:54.526Z,3.70
2017-05-23T09:44:23.255Z,4.34
2017-05-23T09:46:51.575Z,4.08
2017-05-23T09:49:19.896Z,4.46
2017-05-23T09:51:48.259Z,3.94
2017-05-23T09:54:16.614Z,3.88
2017-05-23T09:56:44.934Z,3.70
2017-05-23T09:59:13.307Z,3.36
2017-05-23T10:01:41.694Z,3.44
2017-05-23T10:04:09.998Z,3.12
2017-05-23T10:06:38.642Z,3.12
2017-05-23T10:09:06.958Z,3.38
2017-05-23T10:11:35.630Z,3.88
2017-05-23T10:14:03.947Z,4.08
2017-05-23T10:16:32.270Z,3.70
2017-05-23T10:18:59.871Z,3.94
2017-05-23T10:21:28.198Z,4.20
2017-05-23T10:23:56.644Z,4.30
2017-05-23T10:26:24.981Z,4.50
2017-05-23T10:28:53.299Z,4.06
2017-05-23T10:31:22.050Z,5.22
2017-05-23T10:33:50.370Z,4.80
2017-05-23T10:36:18.930Z,5.66
2017-05-23T10:38:47.686Z,4.58
2017-05-23T10:41:15.995Z,5.60
2017-05-23T10:43:44.322Z,5.20
2017-05-23T10:46:12.995Z,7.64
2017-05-23T10:48:41.334Z,9.12
2017-05-23T10:51:09.693Z,6.52
2017-05-23T10:53:38.008Z,6.20
2017-05-23T10:56:07.098Z,8.48
2017-05-23T10:58:35.928Z,7.28
2017-05-23T11:01:04.279Z,8.58
2017-05-23T11:03:33.219Z,9.12
2017-05-23T11:06:01.550Z,6.96
2017-05-23T11:08:29.894Z,8.82
2017-05-23T11:10:58.707Z,6.58
2017-05-23T11:13:27.035Z,20.68
2017-05-23T11:15:55.354Z,8.00
2017-05-23T11:18:23.836Z,8.06
2017-05-23T11:20:52.508Z,9.60
2017-05-23T11:23:20.834Z,8.62
2017-05-23T11:25:49.155Z,11.52
2017-05-23T11:28:16.933Z,9.72
2017-05-23T11:30:45.258Z,10.20
2017-05-23T11:33:13.686Z,9.34
2017-05-23T11:35:42.166Z,9.50
2017-05-23T11:38:10.508Z,10.26
2017-05-23T11:40:38.875Z,10.76
2017-05-23T11:43:07.198Z,12.24
2017-05-23T11:45:36.130Z,12.22
2017-05-23T11:48:04.454Z,10.90
2017-05-23T11:50:32.773Z,10.14
2017-05-23T11:53:01.930Z,10.38
2017-05-23T11:55:30.255Z,11.40
2017-05-23T11:57:58.578Z,10.16
2017-05-23T12:00:27.106Z,9.66
2017-05-23T12:02:55.429Z,9.30
2017-05-23T12:05:23.747Z,25.64
2017-05-23T12:07:52.702Z,9.30
2017-05-23T12:10:21.017Z,8.08
2017-05-23T12:12:49.339Z,6.82
2017-05-23T12:15:18.598Z,6.34
2017-05-23T12:17:46.920Z,6.54
2017-05-23T12:20:15.239Z,6.18
2017-05-23T12:22:44.020Z,7.76
2017-05-23T12:25:12.394Z,7.46
2017-05-23T12:27:40.752Z,7.30
2017-05-23T12:30:09.736Z,21.48
2017-05-23T12:32:39.078Z,6.78
2017-05-23T12:35:07.402Z,7.10
2017-05-23T12:37:36.164Z,5.64
2017-05-23T12:40:04.503Z,6.04
2017-05-23T12:42:32.856Z,6.40
2017-05-23T12:45:01.216Z,10.08
2017-05-23T12:47:29.550Z,6.80
2017-05-23T12:50:03.282Z,6.90
2017-05-23T12:52:31.598Z,5.94
2017-05-23T12:55:00.235Z,6.40
2017-05-23T12:57:28.931Z,6.62
2017-05-23T12:59:57.248Z,5.34
2017-05-23T13:02:25.566Z,7.96
2017-05-23T13:04:53.935Z,6.62
2017-05-23T13:07:22.266Z,11.54
2017-05-23T13:09:55.752Z,8.24
2017-05-23T13:12:24.070Z,8.20
2017-05-23T13:14:52.450Z,7.00
2017-05-23T13:17:20.763Z,7.04
2017-05-23T13:19:49.692Z,6.94
2017-05-23T13:22:18.007Z,6.12
2017-05-23T13:24:46.324Z,6.42
2017-05-23T13:27:14.892Z,6.90
2017-05-23T13:29:43.224Z,7.74
2017-05-23T13:32:11.601Z,7.44
2017-05-23T13:34:39.950Z,8.50
2017-05-23T13:37:08.314Z,6.82
2017-05-23T13:39:36.629Z,5.82
2017-05-23T13:42:05.056Z,7.10
2017-05-23T13:44:33.798Z,7.28
2017-05-23T13:47:02.239Z,6.36
2017-05-23T13:49:30.615Z,8.34
2017-05-23T13:51:59.356Z,24.34
2017-05-23T13:54:27.720Z,6.04
2017-05-23T13:56:56.713Z,8.70
2017-05-23T13:59:25.485Z,10.88
2017-05-23T14:01:53.845Z,18.96
2017-05-23T14:04:22.205Z,11.10
2017-05-23T14:06:50.965Z,9.36
2017-05-23T14:09:19.326Z,8.16
2017-05-23T14:11:47.699Z,8.54
2017-05-23T14:14:15.454Z,8.08
2017-05-23T14:16:43.859Z,7.82
2017-05-23T14:19:12.194Z,7.42
2017-05-23T14:21:41.186Z,9.80
2017-05-23T14:24:09.505Z,10.56
2017-05-23T14:26:37.814Z,9.06
2017-05-23T14:29:06.854Z,8.68
2017-05-23T14:31:35.190Z,9.66
2017-05-23T14:34:03.508Z,8.30
2017-05-23T14:36:32.507Z,8.94
2017-05-23T14:39:00.821Z,7.94
2017-05-23T14:41:29.146Z,8.20
2017-05-23T14:43:58.054Z,7.62
2017-05-23T14:46:26.383Z,9.62
2017-05-23T14:48:54.710Z,10.64
2017-05-23T14:51:23.071Z,9.52
2017-05-23T14:53:51.443Z,10.24
2017-05-23T14:56:19.769Z,9.14
2017-05-23T14:58:48.541Z,8.10
2017-05-23T15:01:16.857Z,8.48
2017-05-23T15:03:45.185Z,9.58
2017-05-23T15:06:13.841Z,10.22
2017-05-23T15:08:42.167Z,10.38
2017-05-23T15:11:10.486Z,11.42
2017-05-23T15:13:43.662Z,10.30
2017-05-23T15:16:12.095Z,11.12
2017-05-23T15:18:40.427Z,11.00
2017-05-23T15:21:08.751Z,10.94
2017-05-23T15:23:37.278Z,11.50
2017-05-23T15:26:06.043Z,10.14
2017-05-23T15:28:34.383Z,9.64
2017-05-23T15:31:02.714Z,10.66
2017-05-23T15:33:31.392Z,10.84
2017-05-23T15:35:59.941Z,9.52
2017-05-23T15:38:28.255Z,9.56
2017-05-23T15:40:56.779Z,8.70
2017-05-23T15:43:25.104Z,10.18
2017-05-23T15:45:53.428Z,9.24
2017-05-23T15:48:21.805Z,7.86
2017-05-23T15:50:50.118Z,8.18
2017-05-23T15:53:18.590Z,7.74
2017-05-23T15:55:46.933Z,7.68
2017-05-23T15:58:15.666Z,7.18
2017-05-23T16:00:45.254Z,7.18
2017-05-23T16:03:13.559Z,6.84
2017-05-23T16:05:41.915Z,6.60
2017-05-23T16:08:10.277Z,6.40
2017-05-23T16:10:38.654Z,6.38
2017-05-23T16:13:07.050Z,6.36
2017-05-23T16:15:35.409Z,5.58
2017-05-23T16:18:03.732Z,5.02
2017-05-23T16:20:31.515Z,4.56
2017-05-23T16:22:59.829Z,3.94
2017-05-23T16:25:28.354Z,3.68
2017-05-23T16:27:56.669Z,3.88
2017-05-23T16:30:24.982Z,3.58
2017-05-23T16:32:53.343Z,2.96
2017-05-23T16:35:21.666Z,3.10
2017-05-23T16:37:50.171Z,2.96
2017-05-23T16:40:18.489Z,2.84
2017-05-23T16:42:46.870Z,2.70
2017-05-23T16:45:15.610Z,2.50
2017-05-23T16:47:43.924Z,3.06
2017-05-23T16:50:12.245Z,2.26
2017-05-23T16:52:41.191Z,2.56
2017-05-23T16:55:09.556Z,2.88
2017-05-23T16:57:37.866Z,3.00
2017-05-23T17:00:06.633Z,2.70
2017-05-23T17:02:34.953Z,2.94
2017-05-23T17:05:03.270Z,2.32
2017-05-23T17:07:31.913Z,2.90
2017-05-23T17:10:00.229Z,2.78
2017-05-23T17:12:28.545Z,2.72
2017-05-23T17:14:57.397Z,2.46
2017-05-23T17:17:25.714Z,2.70
2017-05-23T17:19:54.032Z,2.70
2017-05-23T17:22:22.841Z,2.62
2017-05-23T17:24:51.317Z,2.84
2017-05-23T17:27:19.642Z,2.44
2017-05-23T17:29:47.958Z,3.00
2017-05-23T17:32:16.667Z,2.90
2017-05-23T17:34:44.986Z,2.78
2017-05-23T17:37:13.749Z,2.40
2017-05-23T17:39:42.074Z,2.40
2017-05-23T17:42:10.390Z,1.92
2017-05-23T17:44:39.171Z,2.00
2017-05-23T17:47:07.496Z,2.02
2017-05-23T17:49:35.826Z,1.93
2017-05-23T17:52:05.038Z,1.80
2017-05-23T17:54:33.427Z,1.88
2017-05-23T17:57:01.746Z,1.74
2017-05-23T17:59:30.179Z,1.40
2017-05-23T18:01:59.712Z,1.10
2017-05-23T18:04:28.147Z,1.15
2017-05-23T18:06:56.949Z,0.97
2017-05-23T18:09:25.273Z,1.10
2017-05-23T18:11:53.598Z,0.98
2017-05-23T18:14:21.973Z,1.00
2017-05-23T18:16:50.412Z,1.15
2017-05-23T18:19:18.739Z,1.03
2017-05-23T18:21:47.074Z,1.17
2017-05-23T18:24:15.711Z,1.27
2017-05-23T18:26:44.033Z,1.30
2017-05-23T18:29:12.349Z,1.30
2017-05-23T18:31:40.845Z,1.15
2017-05-23T18:34:09.221Z,1.50
2017-05-23T18:36:37.542Z,1.50
2017-05-23T18:39:12.588Z,1.43
2017-05-23T18:41:40.964Z,1.42
2017-05-23T18:44:09.307Z,1.30
2017-05-23T18:46:38.105Z,1.45
2017-05-23T18:49:06.443Z,1.40
2017-05-23T18:51:34.803Z,1.47
2017-05-23T18:54:03.175Z,1.58
2017-05-23T18:56:31.515Z,1.48
2017-05-23T18:59:00.066Z,1.53
2017-05-23T19:01:28.417Z,1.73
2017-05-23T19:03:57.063Z,1.57
2017-05-23T19:06:25.397Z,1.65
2017-05-23T19:08:53.715Z,2.18
2017-05-23T19:11:22.081Z,1.92
2017-05-23T19:13:50.504Z,2.45
2017-05-23T19:16:18.829Z,2.30
2017-05-23T19:18:47.699Z,1.73
2017-05-23T19:21:16.019Z,1.48
2017-05-23T19:23:44.346Z,1.70
2017-05-23T19:26:13.046Z,2.05
2017-05-23T19:28:41.370Z,2.03
2017-05-23T19:31:09.685Z,1.62
2017-05-23T19:33:38.739Z,1.45
2017-05-23T19:36:07.171Z,1.40
2017-05-23T19:38:35.496Z,1.48
2017-05-23T19:41:04.036Z,1.30
2017-05-23T19:43:32.747Z,1.60
2017-05-23T19:46:01.073Z,1.10
2017-05-23T19:48:29.397Z,1.28
2017-05-23T19:50:57.951Z,1.37
2017-05-23T19:53:26.267Z,1.30
2017-05-23T19:55:54.640Z,1.30
2017-05-23T19:58:22.967Z,1.37
2017-05-23T20:00:51.282Z,1.48
2017-05-23T20:03:20.002Z,1.58
2017-05-23T20:05:48.322Z,1.43
2017-05-23T20:08:16.747Z,1.23
2017-05-23T20:10:45.614Z,1.33
2017-05-23T20:13:13.934Z,1.53
2017-05-23T20:15:42.255Z,1.47
2017-05-23T20:18:10.769Z,1.38
2017-05-23T20:20:39.086Z,1.92
2017-05-23T20:23:07.457Z,1.60
2017-05-23T20:25:35.775Z,1.52
2017-05-23T20:28:04.086Z,1.70
2017-05-23T20:30:32.966Z,1.80
2017-05-23T20:33:01.281Z,1.60
2017-05-23T20:35:29.601Z,1.62
2017-05-23T20:37:58.442Z,1.73
2017-05-23T20:40:26.766Z,1.75
2017-05-23T20:42:55.079Z,1.17
2017-05-23T20:45:23.988Z,1.98
2017-05-23T20:47:52.298Z,1.50
2017-05-23T20:50:20.617Z,1.78
2017-05-23T20:52:48.971Z,2.08
2017-05-23T20:55:17.282Z,1.60
2017-05-23T20:57:45.706Z,1.60
2017-05-23T21:00:14.021Z,1.60
2017-05-23T21:02:42.344Z,1.78
2017-05-23T21:05:11.339Z,1.87
2017-05-23T21:07:40.284Z,2.10
2017-05-23T21:10:08.606Z,2.28
2017-05-23T21:12:37.294Z,1.97
2017-05-23T21:15:05.610Z,1.65
2017-05-23T21:17:33.927Z,1.52
2017-05-23T21:20:02.326Z,1.60
2017-05-23T21:22:31.243Z,1.83
2017-05-23T21:24:59.562Z,1.95
2017-05-23T21:27:27.878Z,1.70
2017-05-23T21:29:56.569Z,1.65
2017-05-23T21:32:24.886Z,1.70
2017-05-23T21:34:53.204Z,2.28
2017-05-23T21:37:21.907Z,2.27
2017-05-23T21:39:50.223Z,1.72
2017-05-23T21:42:18.540Z,1.80
2017-05-23T21:44:47.694Z,1.88
2017-05-23T21:47:16.007Z,1.80
2017-05-23T21:49:44.318Z,1.62
2017-05-23T21:52:12.679Z,1.68
2017-05-23T21:54:40.994Z,2.07
2017-05-23T21:57:08.578Z,2.17
2017-05-23T21:59:36.886Z,1.60
2017-05-23T22:02:05.642Z,2.10
2017-05-23T22:04:33.963Z,1.73
2017-05-23T22:07:02.278Z,2.00
2017-05-23T22:09:31.110Z,2.02
2017-05-23T22:11:59.423Z,2.08
2017-05-23T22:14:27.950Z,2.10
2017-05-23T22:16:56.261Z,1.70
2017-05-23T22:19:24.578Z,2.13
2017-05-23T22:21:53.225Z,2.02
2017-05-23T22:24:21.538Z,1.92
2017-05-23T22:26:50.230Z,1.92
2017-05-23T22:29:18.538Z,2.52
2017-05-23T22:31:46.848Z,2.05
2017-05-23T22:34:15.318Z,2.30
2017-05-23T22:36:43.937Z,2.20
2017-05-23T22:39:12.251Z,2.05
2017-05-23T22:41:41.206Z,2.47
2017-05-23T22:44:09.522Z,2.20
2017-05-23T22:46:37.838Z,1.75
2017-05-23T22:49:06.678Z,2.18
2017-05-23T22:51:34.996Z,2.00
2017-05-23T22:54:03.318Z,1.90
2017-05-23T22:56:31.970Z,2.07
2017-05-23T22:59:00.282Z,2.38
2017-05-23T23:01:28.597Z,2.18
2017-05-23T23:03:57.094Z,2.35
2017-05-23T23:06:25.469Z,2.58
2017-05-23T23:08:53.786Z,2.23
2017-05-23T23:11:22.106Z,2.40
2017-05-23T23:13:50.466Z,2.22
2017-05-23T23:16:18.779Z,2.30
2017-05-23T23:18:47.418Z,2.35
2017-05-23T23:21:15.733Z,2.05
2017-05-23T23:23:44.045Z,2.03
2017-05-23T23:26:12.894Z,2.20
2017-05-23T23:28:41.217Z,2.35
2017-05-23T23:31:09.529Z,1.90
2017-05-23T23:33:37.894Z,2.22
2017-05-23T23:36:06.206Z,1.82
2017-05-23T23:38:36.293Z,2.07
2017-05-23T23:41:04.609Z,2.05
2017-05-23T23:43:32.926Z,1.83
2017-05-23T23:46:01.547Z,2.27
2017-05-23T23:48:29.862Z,2.60
2017-05-23T23:51:02.517Z,2.70
2017-05-23T23:53:30.839Z,2.70
2017-05-23T23:55:59.150Z,2.40
2017-05-23T23:58:27.834Z,2.40
